EPPO/POZ METAR and TAF weather

Enter ICAO airport designator
Station Type Date Time Source
EPPO METAR 2022/11/26 09:30 UTC NOAA

EPPO 260930Z 32003KT 1100 R28/P2000N BR OVC002 03/03 Q1026


Station Type Date Time Source
EPPO Decoded METAR 2022/11/26 09:30 UTC NOAA

Poznan, Poland (EPPO) 52-25N 016-50E 92M
Nov 26, 2022 - 04:30 AM EST / 2022.11.26 0930 UTC
Wind: from the NW (320 degrees) at 3 MPH (3 KT):0
Visibility: less than 1 mile:0
Sky conditions: overcast
Weather: mist
Temperature: 37 F (3 C)
Dew Point: 37 F (3 C)
Relative Humidity: 100%
Pressure (altimeter): 30.30 in. Hg (1026 hPa)
ob: EPPO 260930Z 32003KT 1100 R28/P2000N BR OVC002 03/03 Q1026
cycle: 9

Station Type Date Time Source
EPPO TAF 2022/11/26 06:33 UTC NOAA

TAF EPPO 260530Z 2606/2706 VRB02KT 0100 FG OVC001
TEMPO 2606/2608 0800 -DZ FG OVC003
BECMG 2608/2611 3000 BR OVC006
TEMPO 2611/2615 5000 BR BKN012
BECMG 2615/2618 1500 BR OVC004
BECMG 2618/2621 0200 FG OVC001

Example: see airport list